sensor_id;sensor_type;location;lat;lon;timestamp;pressure;altitude;pressure_sealevel;temperature;humidity
12897;BME280;6516;35.028;32.372;2024-03-02T00:01:55;99795.53;;;11.58;100.00
12897;BME280;6516;35.028;32.372;2024-03-02T00:04:23;99793.75;;;11.59;100.00
12897;BME280;6516;35.028;32.372;2024-03-02T00:06:52;99793.72;;;11.62;100.00
12897;BME280;6516;35.028;32.372;2024-03-02T00:09:20;99787.63;;;11.58;100.00
12897;BME280;6516;35.028;32.372;2024-03-02T00:11:48;99767.38;;;11.62;100.00
12897;BME280;6516;35.028;32.372;2024-03-02T00:14:17;99768.34;;;11.56;100.00
12897;BME280;6516;35.028;32.372;2024-03-02T00:16:46;99757.50;;;11.36;100.00
12897;BME280;6516;35.028;32.372;2024-03-02T00:19:14;99762.06;;;11.30;100.00
12897;BME280;6516;35.028;32.372;2024-03-02T00:21:42;99761.09;;;11.34;100.00
12897;BME280;6516;35.028;32.372;2024-03-02T00:24:19;99757.47;;;11.70;100.00
12897;BME280;6516;35.028;32.372;2024-03-02T00:26:49;99756.59;;;11.69;100.00
12897;BME280;6516;35.028;32.372;2024-03-02T00:29:17;99760.03;;;11.71;100.00
12897;BME280;6516;35.028;32.372;2024-03-02T00:31:48;99756.56;;;11.71;100.00
12897;BME280;6516;35.028;32.372;2024-03-02T00:34:17;99756.56;;;11.71;100.00
12897;BME280;6516;35.028;32.372;2024-03-02T00:36:45;99748.69;;;11.69;100.00
12897;BME280;6516;35.028;32.372;2024-03-02T00:39:15;99747.53;;;11.78;100.00
12897;BME280;6516;35.028;32.372;2024-03-02T00:41:43;99743.78;;;11.86;100.00
12897;BME280;6516;35.028;32.372;2024-03-02T00:44:12;99740.59;;;11.75;100.00
12897;BME280;6516;35.028;32.372;2024-03-02T00:46:41;99737.22;;;11.70;100.00
12897;BME280;6516;35.028;32.372;2024-03-02T00:49:18;99733.84;;;11.65;100.00
12897;BME280;6516;35.028;32.372;2024-03-02T00:51:48;99725.22;;;11.59;100.00
12897;BME280;6516;35.028;32.372;2024-03-02T00:54:20;99726.22;;;11.55;100.00
12897;BME280;6516;35.028;32.372;2024-03-02T00:56:50;99719.22;;;11.54;94.92
12897;BME280;6516;35.028;32.372;2024-03-02T00:59:18;99726.19;;;11.56;92.40
12897;BME280;6516;35.028;32.372;2024-03-02T01:01:47;99727.13;;;11.54;94.29
12897;BME280;6516;35.028;32.372;2024-03-02T01:04:16;99721.97;;;11.49;93.18
12897;BME280;6516;35.028;32.372;2024-03-02T01:06:44;99725.56;;;11.47;91.21
12897;BME280;6516;35.028;32.372;2024-03-02T01:09:12;99722.06;;;11.46;88.39
12897;BME280;6516;35.028;32.372;2024-03-02T01:11:40;99718.59;;;11.44;86.24
12897;BME280;6516;35.028;32.372;2024-03-02T01:14:08;99715.13;;;11.44;79.79
12897;BME280;6516;35.028;32.372;2024-03-02T01:16:36;99721.69;;;11.60;68.64
12897;BME280;6516;35.028;32.372;2024-03-02T01:19:04;99716.28;;;11.66;64.62
12897;BME280;6516;35.028;32.372;2024-03-02T01:21:34;99711.97;;;11.63;62.29
12897;BME280;6516;35.028;32.372;2024-03-02T01:24:03;99717.09;;;11.68;58.30
12897;BME280;6516;35.028;32.372;2024-03-02T01:26:31;99710.88;;;11.69;57.42
12897;BME280;6516;35.028;32.372;2024-03-02T01:28:59;99711.84;;;11.66;56.04
12897;BME280;6516;35.028;32.372;2024-03-02T01:31:27;99718.41;;;11.82;51.61
12897;BME280;6516;35.028;32.372;2024-03-02T01:33:55;99720.63;;;11.96;49.98
12897;BME280;6516;35.028;32.372;2024-03-02T01:36:23;99713.66;;;11.93;50.37
12897;BME280;6516;35.028;32.372;2024-03-02T01:38:52;99713.91;;;11.86;51.32
12897;BME280;6516;35.028;32.372;2024-03-02T01:41:20;99714.81;;;11.85;50.75
12897;BME280;6516;35.028;32.372;2024-03-02T01:43:48;99710.63;;;11.78;50.87
12897;BME280;6516;35.028;32.372;2024-03-02T01:46:16;99709.09;;;11.71;51.61
12897;BME280;6516;35.028;32.372;2024-03-02T01:48:44;99714.25;;;11.74;49.43
12897;BME280;6516;35.028;32.372;2024-03-02T01:51:11;99717.53;;;11.82;49.25
12897;BME280;6516;35.028;32.372;2024-03-02T01:53:39;99715.91;;;11.78;50.16
12897;BME280;6516;35.028;32.372;2024-03-02T01:56:08;99716.16;;;11.69;50.97
12897;BME280;6516;35.028;32.372;2024-03-02T01:58:37;99722.88;;;11.79;49.32
12897;BME280;6516;35.028;32.372;2024-03-02T02:01:04;99719.63;;;11.71;50.69
12897;BME280;6516;35.028;32.372;2024-03-02T02:03:32;99720.81;;;11.61;52.08
12897;BME280;6516;35.028;32.372;2024-03-02T02:06:00;99720.81;;;11.59;51.17
12897;BME280;6516;35.028;32.372;2024-03-02T02:08:28;99719.06;;;11.58;51.41
12897;BME280;6516;35.028;32.372;2024-03-02T02:10:57;99721.53;;;11.66;50.76
12897;BME280;6516;35.028;32.372;2024-03-02T02:13:27;99731.19;;;11.67;50.07
12897;BME280;6516;35.028;32.372;2024-03-02T02:15:55;99731.19;;;11.67;50.33
12897;BME280;6516;35.028;32.372;2024-03-02T02:18:23;99733.75;;;11.70;51.10
12897;BME280;6516;35.028;32.372;2024-03-02T02:20:50;99737.41;;;11.64;51.38
12897;BME280;6516;35.028;32.372;2024-03-02T02:23:20;99741.97;;;11.58;53.23
12897;BME280;6516;35.028;32.372;2024-03-02T02:25:48;99742.06;;;11.53;53.37
12897;BME280;6516;35.028;32.372;2024-03-02T02:28:16;99742.31;;;11.44;53.56
12897;BME280;6516;35.028;32.372;2024-03-02T02:30:43;99745.03;;;11.43;54.23
12897;BME280;6516;35.028;32.372;2024-03-02T02:33:11;99746.88;;;11.39;55.51
12897;BME280;6516;35.028;32.372;2024-03-02T02:35:39;99751.44;;;11.32;54.44
12897;BME280;6516;35.028;32.372;2024-03-02T02:38:07;99748.53;;;11.42;52.35
12897;BME280;6516;35.028;32.372;2024-03-02T02:40:37;99751.09;;;11.45;52.96
12897;BME280;6516;35.028;32.372;2024-03-02T02:43:04;99762.63;;;11.41;53.49
12897;BME280;6516;35.028;32.372;2024-03-02T02:45:32;99761.34;;;11.55;51.74
12897;BME280;6516;35.028;32.372;2024-03-02T02:48:00;99759.78;;;11.48;54.03
12897;BME280;6516;35.028;32.372;2024-03-02T02:50:29;99759.78;;;11.48;54.76
12897;BME280;6516;35.028;32.372;2024-03-02T02:53:00;99755.59;;;11.41;54.51
12897;BME280;6516;35.028;32.372;2024-03-02T02:55:28;99759.25;;;11.36;54.81
12897;BME280;6516;35.028;32.372;2024-03-02T02:57:58;99773.81;;;11.18;56.77
12897;BME280;6516;35.028;32.372;2024-03-02T03:00:26;99775.72;;;11.12;57.53
12897;BME280;6516;35.028;32.372;2024-03-02T03:02:54;99767.16;;;11.03;58.44
12897;BME280;6516;35.028;32.372;2024-03-02T03:05:21;99769.13;;;10.95;59.32
12897;BME280;6516;35.028;32.372;2024-03-02T03:07:49;99773.59;;;10.92;60.06
12897;BME280;6516;35.028;32.372;2024-03-02T03:10:17;99774.72;;;10.83;60.88
12897;BME280;6516;35.028;32.372;2024-03-02T03:12:47;99774.81;;;10.79;61.64
12897;BME280;6516;35.028;32.372;2024-03-02T03:15:17;99770.44;;;10.78;62.14
12897;BME280;6516;35.028;32.372;2024-03-02T03:17:45;99767.81;;;10.78;64.07
12897;BME280;6516;35.028;32.372;2024-03-02T03:20:13;99771.31;;;10.78;66.92
12897;BME280;6516;35.028;32.372;2024-03-02T03:22:42;99764.25;;;10.80;63.70
12897;BME280;6516;35.028;32.372;2024-03-02T03:25:10;99773.16;;;10.75;66.30
12897;BME280;6516;35.028;32.372;2024-03-02T03:27:38;99765.66;;;10.93;66.28
12897;BME280;6516;35.028;32.372;2024-03-02T03:30:07;99767.56;;;10.88;71.50
12897;BME280;6516;35.028;32.372;2024-03-02T03:32:37;99764.00;;;10.89;77.70
12897;BME280;6516;35.028;32.372;2024-03-02T03:35:06;99762.09;;;10.61;79.28
12897;BME280;6516;35.028;32.372;2024-03-02T03:37:34;99768.34;;;10.57;82.98
12897;BME280;6516;35.028;32.372;2024-03-02T03:40:03;99761.13;;;10.65;84.37
12897;BME280;6516;35.028;32.372;2024-03-02T03:42:35;99755.00;;;10.63;86.96
12897;BME280;6516;35.028;32.372;2024-03-02T03:45:04;99760.53;;;10.54;86.07
12897;BME280;6516;35.028;32.372;2024-03-02T03:47:32;99759.03;;;10.42;81.22
12897;BME280;6516;35.028;32.372;2024-03-02T03:50:02;99753.84;;;10.39;82.74
12897;BME280;6516;35.028;32.372;2024-03-02T03:52:32;99761.72;;;10.41;82.74
12897;BME280;6516;35.028;32.372;2024-03-02T03:55:00;99757.97;;;10.51;76.63
12897;BME280;6516;35.028;32.372;2024-03-02T03:57:28;99757.91;;;10.54;76.67
12897;BME280;6516;35.028;32.372;2024-03-02T03:59:56;99752.56;;;10.55;78.72
12897;BME280;6516;35.028;32.372;2024-03-02T04:02:24;99742.00;;;10.57;80.50
12897;BME280;6516;35.028;32.372;2024-03-02T04:04:52;99746.72;;;10.79;76.93
12897;BME280;6516;35.028;32.372;2024-03-02T04:07:21;99751.41;;;10.67;83.14
12897;BME280;6516;35.028;32.372;2024-03-02T04:09:49;99756.59;;;10.70;81.52
12897;BME280;6516;35.028;32.372;2024-03-02T04:12:16;99752.44;;;10.61;84.22
12897;BME280;6516;35.028;32.372;2024-03-02T04:14:44;99762.25;;;10.55;84.71
12897;BME280;6516;35.028;32.372;2024-03-02T04:17:12;99745.41;;;10.60;80.65
12897;BME280;6516;35.028;32.372;2024-03-02T04:19:40;99749.22;;;10.49;81.19
12897;BME280;6516;35.028;32.372;2024-03-02T04:22:08;99747.66;;;10.42;81.74
12897;BME280;6516;35.028;32.372;2024-03-02T04:24:37;99755.69;;;10.36;81.32
12897;BME280;6516;35.028;32.372;2024-03-02T04:27:05;99748.63;;;10.38;78.23
12897;BME280;6516;35.028;32.372;2024-03-02T04:29:33;99742.41;;;10.40;79.07
12897;BME280;6516;35.028;32.372;2024-03-02T04:32:01;99749.34;;;10.44;76.15
12897;BME280;6516;35.028;32.372;2024-03-02T04:34:29;99749.72;;;10.29;78.82
12897;BME280;6516;35.028;32.372;2024-03-02T04:36:57;99742.91;;;10.19;78.67
12897;BME280;6516;35.028;32.372;2024-03-02T04:39:24;99750.53;;;10.31;76.64
12897;BME280;6516;35.028;32.372;2024-03-02T04:41:54;99746.72;;;10.44;75.20
12897;BME280;6516;35.028;32.372;2024-03-02T04:44:22;99746.44;;;10.56;80.05
12897;BME280;6516;35.028;32.372;2024-03-02T04:46:49;99747.38;;;10.54;86.07
12897;BME280;6516;35.028;32.372;2024-03-02T04:49:17;99738.81;;;10.44;87.95
12897;BME280;6516;35.028;32.372;2024-03-02T04:51:45;99742.31;;;10.45;88.11
12897;BME280;6516;35.028;32.372;2024-03-02T04:54:13;99741.25;;;10.52;87.18
12897;BME280;6516;35.028;32.372;2024-03-02T04:56:41;99737.44;;;10.65;87.37
12897;BME280;6516;35.028;32.372;2024-03-02T04:59:16;99741.50;;;10.78;88.21
12897;BME280;6516;35.028;32.372;2024-03-02T05:01:45;99742.94;;;10.89;88.36
12897;BME280;6516;35.028;32.372;2024-03-02T05:04:13;99749.63;;;11.02;88.29
12897;BME280;6516;35.028;32.372;2024-03-02T05:06:41;99745.09;;;11.07;90.48
12897;BME280;6516;35.028;32.372;2024-03-02T05:09:09;99742.56;;;11.03;93.36
12897;BME280;6516;35.028;32.372;2024-03-02T05:11:36;99745.78;;;11.16;94.31
12897;BME280;6516;35.028;32.372;2024-03-02T05:14:23;99740.00;;;11.34;93.45
12897;BME280;6516;35.028;32.372;2024-03-02T05:16:51;99732.31;;;11.57;91.93
12897;BME280;6516;35.028;32.372;2024-03-02T05:19:18;99729.97;;;11.78;91.54
12897;BME280;6516;35.028;32.372;2024-03-02T05:21:46;99738.06;;;12.01;91.24
12897;BME280;6516;35.028;32.372;2024-03-02T05:24:14;99735.66;;;12.21;91.25
12897;BME280;6516;35.028;32.372;2024-03-02T05:26:42;99730.63;;;12.41;90.11
12897;BME280;6516;35.028;32.372;2024-03-02T05:29:10;99729.81;;;12.65;89.28
12897;BME280;6516;35.028;32.372;2024-03-02T05:31:40;99730.84;;;12.87;85.31
12897;BME280;6516;35.028;32.372;2024-03-02T05:34:08;99739.84;;;13.08;78.67
12897;BME280;6516;35.028;32.372;2024-03-02T05:36:36;99734.63;;;13.31;75.53
12897;BME280;6516;35.028;32.372;2024-03-02T05:39:04;99727.69;;;13.51;76.49
12897;BME280;6516;35.028;32.372;2024-03-02T05:41:34;99724.97;;;13.77;75.40
12897;BME280;6516;35.028;32.372;2024-03-02T05:44:04;99725.34;;;14.13;85.00
12897;BME280;6516;35.028;32.372;2024-03-02T05:46:32;99735.94;;;14.36;82.18
12897;BME280;6516;35.028;32.372;2024-03-02T05:49:01;99734.88;;;14.61;75.44
12897;BME280;6516;35.028;32.372;2024-03-02T05:51:29;99735.50;;;14.89;71.42
12897;BME280;6516;35.028;32.372;2024-03-02T05:53:57;99727.53;;;15.09;70.09
12897;BME280;6516;35.028;32.372;2024-03-02T05:56:24;99734.41;;;15.35;68.16
12897;BME280;6516;35.028;32.372;2024-03-02T05:58:52;99726.94;;;15.63;63.79
12897;BME280;6516;35.028;32.372;2024-03-02T06:01:32;99733.41;;;15.96;59.67
12897;BME280;6516;35.028;32.372;2024-03-02T06:04:02;99725.56;;;16.30;56.24
12897;BME280;6516;35.028;32.372;2024-03-02T06:06:30;99727.34;;;16.66;53.07
12897;BME280;6516;35.028;32.372;2024-03-02T06:08:59;99728.06;;;17.04;49.79
12897;BME280;6516;35.028;32.372;2024-03-02T06:11:28;99713.88;;;17.37;48.58
12897;BME280;6516;35.028;32.372;2024-03-02T06:13:56;99719.97;;;17.73;46.93
12897;BME280;6516;35.028;32.372;2024-03-02T06:16:24;99717.28;;;18.06;45.41
12897;BME280;6516;35.028;32.372;2024-03-02T06:18:52;99714.25;;;18.44;44.73
12897;BME280;6516;35.028;32.372;2024-03-02T06:21:21;99718.50;;;18.78;43.06
12897;BME280;6516;35.028;32.372;2024-03-02T06:23:51;99702.44;;;19.09;42.62
12897;BME280;6516;35.028;32.372;2024-03-02T06:26:19;99713.13;;;19.38;42.08
12897;BME280;6516;35.028;32.372;2024-03-02T06:28:47;99711.31;;;19.67;41.64
12897;BME280;6516;35.028;32.372;2024-03-02T06:31:15;99702.53;;;19.93;41.31
12897;BME280;6516;35.028;32.372;2024-03-02T06:33:43;99702.19;;;20.13;41.34
12897;BME280;6516;35.028;32.372;2024-03-02T06:36:11;99702.50;;;20.35;40.74
12897;BME280;6516;35.028;32.372;2024-03-02T06:38:40;99692.81;;;20.61;38.42
12897;BME280;6516;35.028;32.372;2024-03-02T06:41:08;99702.03;;;20.69;39.27
12897;BME280;6516;35.028;32.372;2024-03-02T06:43:36;99699.16;;;20.72;40.49
12897;BME280;6516;35.028;32.372;2024-03-02T06:46:04;99695.50;;;20.61;39.59
12897;BME280;6516;35.028;32.372;2024-03-02T06:48:35;99697.16;;;20.49;39.49
12897;BME280;6516;35.028;32.372;2024-03-02T06:51:03;99698.09;;;20.48;39.43
12897;BME280;6516;35.028;32.372;2024-03-02T06:53:31;99703.06;;;20.54;38.55
12897;BME280;6516;35.028;32.372;2024-03-02T06:56:01;99703.59;;;20.59;39.68
12897;BME280;6516;35.028;32.372;2024-03-02T06:58:30;99704.94;;;20.52;39.24
12897;BME280;6516;35.028;32.372;2024-03-02T07:00:58;99706.06;;;20.62;38.14
12897;BME280;6516;35.028;32.372;2024-03-02T07:03:26;99703.66;;;20.72;37.13
12897;BME280;6516;35.028;32.372;2024-03-02T07:05:54;99708.03;;;20.73;36.49
12897;BME280;6516;35.028;32.372;2024-03-02T07:08:22;99709.91;;;20.85;36.36
12897;BME280;6516;35.028;32.372;2024-03-02T07:10:50;99712.91;;;21.07;36.61
12897;BME280;6516;35.028;32.372;2024-03-02T07:13:20;99712.75;;;21.35;36.63
12897;BME280;6516;35.028;32.372;2024-03-02T07:15:47;99711.28;;;21.68;36.50
12897;BME280;6516;35.028;32.372;2024-03-02T07:18:41;99710.84;;;21.87;36.01
12897;BME280;6516;35.028;32.372;2024-03-02T07:21:16;99706.56;;;22.09;34.74
12897;BME280;6516;35.028;32.372;2024-03-02T07:23:44;99701.09;;;22.11;33.09
12897;BME280;6516;35.028;32.372;2024-03-02T07:26:12;99701.34;;;22.31;32.73
12897;BME280;6516;35.028;32.372;2024-03-02T07:28:42;99700.50;;;22.67;32.44
12897;BME280;6516;35.028;32.372;2024-03-02T07:31:10;99693.75;;;22.85;28.62
12897;BME280;6516;35.028;32.372;2024-03-02T07:33:37;99692.69;;;22.87;26.45
12897;BME280;6516;35.028;32.372;2024-03-02T07:36:05;99696.88;;;23.02;29.63
12897;BME280;6516;35.028;32.372;2024-03-02T07:38:34;99689.09;;;23.10;30.66
12897;BME280;6516;35.028;32.372;2024-03-02T07:41:02;99688.81;;;23.26;30.85
12897;BME280;6516;35.028;32.372;2024-03-02T07:43:31;99680.56;;;23.40;27.83
12897;BME280;6516;35.028;32.372;2024-03-02T07:46:00;99680.00;;;23.69;28.24
12897;BME280;6516;35.028;32.372;2024-03-02T07:48:28;99678.81;;;23.95;27.81
12897;BME280;6516;35.028;32.372;2024-03-02T07:50:56;99671.47;;;24.19;26.26
12897;BME280;6516;35.028;32.372;2024-03-02T07:53:24;99669.59;;;24.31;26.02
12897;BME280;6516;35.028;32.372;2024-03-02T07:55:52;99670.56;;;24.52;26.41
12897;BME280;6516;35.028;32.372;2024-03-02T07:58:20;99676.53;;;24.55;26.79
12897;BME280;6516;35.028;32.372;2024-03-02T08:00:48;99670.66;;;24.72;26.86
12897;BME280;6516;35.028;32.372;2024-03-02T08:03:17;99666.88;;;24.95;26.70
12897;BME280;6516;35.028;32.372;2024-03-02T08:05:45;99670.06;;;25.21;26.08
12897;BME280;6516;35.028;32.372;2024-03-02T08:08:13;99668.81;;;25.25;25.16
12897;BME280;6516;35.028;32.372;2024-03-02T08:10:41;99663.59;;;25.44;24.42
12897;BME280;6516;35.028;32.372;2024-03-02T08:13:09;99671.41;;;25.47;24.96
12897;BME280;6516;35.028;32.372;2024-03-02T08:15:37;99656.28;;;25.55;25.77
12897;BME280;6516;35.028;32.372;2024-03-02T08:18:05;99655.69;;;25.52;26.73
12897;BME280;6516;35.028;32.372;2024-03-02T08:20:35;99658.03;;;25.66;26.25
12897;BME280;6516;35.028;32.372;2024-03-02T08:23:03;99655.41;;;25.75;25.60
12897;BME280;6516;35.028;32.372;2024-03-02T08:25:31;99647.88;;;25.99;26.22
12897;BME280;6516;35.028;32.372;2024-03-02T08:27:59;99648.88;;;26.08;26.08
12897;BME280;6516;35.028;32.372;2024-03-02T08:30:27;99636.34;;;26.37;25.81
12897;BME280;6516;35.028;32.372;2024-03-02T08:32:55;99637.38;;;26.06;25.61
12897;BME280;6516;35.028;32.372;2024-03-02T08:35:22;99647.66;;;26.21;25.28
12897;BME280;6516;35.028;32.372;2024-03-02T08:37:52;99635.16;;;26.20;25.55
12897;BME280;6516;35.028;32.372;2024-03-02T08:40:19;99641.75;;;26.37;25.89
12897;BME280;6516;35.028;32.372;2024-03-02T08:42:47;99631.16;;;26.64;25.32
12897;BME280;6516;35.028;32.372;2024-03-02T08:45:15;99636.28;;;26.76;26.19
12897;BME280;6516;35.028;32.372;2024-03-02T08:47:43;99628.91;;;26.98;25.93
12897;BME280;6516;35.028;32.372;2024-03-02T08:50:10;99628.91;;;26.98;25.87
12897;BME280;6516;35.028;32.372;2024-03-02T08:52:38;99625.75;;;26.64;26.33
12897;BME280;6516;35.028;32.372;2024-03-02T08:55:08;99630.28;;;26.63;26.33
12897;BME280;6516;35.028;32.372;2024-03-02T08:57:37;99632.56;;;26.58;25.19
12897;BME280;6516;35.028;32.372;2024-03-02T09:00:06;99635.97;;;26.60;24.96
12897;BME280;6516;35.028;32.372;2024-03-02T09:02:35;99643.22;;;26.69;26.24
12897;BME280;6516;35.028;32.372;2024-03-02T09:05:03;99637.28;;;26.75;25.60
12897;BME280;6516;35.028;32.372;2024-03-02T09:07:32;99638.72;;;26.79;25.22
12897;BME280;6516;35.028;32.372;2024-03-02T09:10:00;99640.38;;;26.71;25.59
12897;BME280;6516;35.028;32.372;2024-03-02T09:12:29;99632.88;;;26.65;25.15
12897;BME280;6516;35.028;32.372;2024-03-02T09:14:57;99636.84;;;26.70;25.53
12897;BME280;6516;35.028;32.372;2024-03-02T09:17:25;99631.03;;;26.84;27.13
12897;BME280;6516;35.028;32.372;2024-03-02T09:19:53;99634.31;;;26.98;28.64
12897;BME280;6516;35.028;32.372;2024-03-02T09:22:21;99632.72;;;27.04;27.60
12897;BME280;6516;35.028;32.372;2024-03-02T09:24:48;99629.31;;;27.22;28.23
12897;BME280;6516;35.028;32.372;2024-03-02T09:27:16;99619.88;;;27.45;29.18
12897;BME280;6516;35.028;32.372;2024-03-02T09:29:46;99628.28;;;27.42;29.07
12897;BME280;6516;35.028;32.372;2024-03-02T09:32:14;99619.03;;;27.44;28.85
12897;BME280;6516;35.028;32.372;2024-03-02T09:34:41;99612.72;;;27.63;30.77
12897;BME280;6516;35.028;32.372;2024-03-02T09:37:10;99617.00;;;27.56;31.20
12897;BME280;6516;35.028;32.372;2024-03-02T09:39:38;99613.50;;;27.36;31.73
12897;BME280;6516;35.028;32.372;2024-03-02T09:42:06;99611.50;;;27.48;32.11
12897;BME280;6516;35.028;32.372;2024-03-02T09:44:34;99604.31;;;27.66;31.43
12897;BME280;6516;35.028;32.372;2024-03-02T09:47:04;99598.31;;;27.72;30.56
12897;BME280;6516;35.028;32.372;2024-03-02T09:49:32;99601.56;;;27.75;30.28
12897;BME280;6516;35.028;32.372;2024-03-02T09:52:00;99591.88;;;27.82;30.38
12897;BME280;6516;35.028;32.372;2024-03-02T09:54:28;99592.34;;;27.68;30.37
12897;BME280;6516;35.028;32.372;2024-03-02T09:56:56;99582.91;;;27.72;30.83
12897;BME280;6516;35.028;32.372;2024-03-02T09:59:30;99574.69;;;27.64;30.55
12897;BME280;6516;35.028;32.372;2024-03-02T10:01:58;99574.16;;;27.51;31.41
12897;BME280;6516;35.028;32.372;2024-03-02T10:04:29;99580.66;;;27.68;31.93
12897;BME280;6516;35.028;32.372;2024-03-02T10:07:12;99586.94;;;27.59;34.65
12897;BME280;6516;35.028;32.372;2024-03-02T10:09:41;99580.19;;;27.72;36.96
12897;BME280;6516;35.028;32.372;2024-03-02T10:12:11;99581.41;;;27.51;36.43
12897;BME280;6516;35.028;32.372;2024-03-02T10:14:40;99582.78;;;27.08;40.79
12897;BME280;6516;35.028;32.372;2024-03-02T10:17:09;99589.50;;;26.66;43.28
12897;BME280;6516;35.028;32.372;2024-03-02T10:19:39;99589.84;;;26.33;44.63
12897;BME280;6516;35.028;32.372;2024-03-02T10:22:07;99586.41;;;26.22;46.24
12897;BME280;6516;35.028;32.372;2024-03-02T10:24:37;99593.78;;;26.10;46.19
12897;BME280;6516;35.028;32.372;2024-03-02T10:27:09;99595.59;;;26.00;45.13
12897;BME280;6516;35.028;32.372;2024-03-02T10:29:39;99589.78;;;25.95;46.54
12897;BME280;6516;35.028;32.372;2024-03-02T10:32:09;99592.38;;;26.16;46.69
12897;BME280;6516;35.028;32.372;2024-03-02T10:34:40;99586.25;;;26.04;47.13
12897;BME280;6516;35.028;32.372;2024-03-02T10:37:08;99578.41;;;26.01;44.04
12897;BME280;6516;35.028;32.372;2024-03-02T10:39:38;99581.59;;;26.16;44.98
12897;BME280;6516;35.028;32.372;2024-03-02T10:42:07;99591.22;;;25.99;45.97
12897;BME280;6516;35.028;32.372;2024-03-02T10:44:35;99582.91;;;25.91;46.19
12897;BME280;6516;35.028;32.372;2024-03-02T10:47:04;99582.81;;;25.93;45.40
12897;BME280;6516;35.028;32.372;2024-03-02T10:49:33;99580.59;;;26.07;46.52
12897;BME280;6516;35.028;32.372;2024-03-02T10:52:02;99584.31;;;26.25;46.83
12897;BME280;6516;35.028;32.372;2024-03-02T10:54:31;99568.56;;;26.49;47.07
12897;BME280;6516;35.028;32.372;2024-03-02T10:57:04;99572.84;;;26.71;46.83
12897;BME280;6516;35.028;32.372;2024-03-02T10:59:34;99564.72;;;26.90;45.04
12897;BME280;6516;35.028;32.372;2024-03-02T11:02:03;99564.28;;;27.04;41.18
12897;BME280;6516;35.028;32.372;2024-03-02T11:04:34;99571.28;;;26.97;41.02
12897;BME280;6516;35.028;32.372;2024-03-02T11:07:05;99567.44;;;27.09;41.22
12897;BME280;6516;35.028;32.372;2024-03-02T11:09:38;99567.28;;;26.91;42.03
12897;BME280;6516;35.028;32.372;2024-03-02T11:12:12;99568.44;;;26.89;41.62
12897;BME280;6516;35.028;32.372;2024-03-02T11:14:43;99562.63;;;26.84;39.24
12897;BME280;6516;35.028;32.372;2024-03-02T11:17:14;99564.19;;;26.96;42.10
12897;BME280;6516;35.028;32.372;2024-03-02T11:19:41;99566.84;;;27.15;42.77
12897;BME280;6516;35.028;32.372;2024-03-02T11:22:12;99555.31;;;27.23;41.06
12897;BME280;6516;35.028;32.372;2024-03-02T11:24:47;99556.34;;;27.22;42.91
12897;BME280;6516;35.028;32.372;2024-03-02T11:30:51;99560.28;;;27.08;39.75
12897;BME280;6516;35.028;32.372;2024-03-02T11:33:26;99565.19;;;26.85;41.01
12897;BME280;6516;35.028;32.372;2024-03-02T11:35:57;99566.28;;;26.92;42.08
12897;BME280;6516;35.028;32.372;2024-03-02T11:38:30;99564.03;;;26.78;38.41
12897;BME280;6516;35.028;32.372;2024-03-02T11:41:00;99571.16;;;26.79;41.71
12897;BME280;6516;35.028;32.372;2024-03-02T11:43:29;99563.75;;;26.81;43.67
12897;BME280;6516;35.028;32.372;2024-03-02T11:45:58;99571.13;;;26.89;44.86
12897;BME280;6516;35.028;32.372;2024-03-02T11:48:26;99569.72;;;26.94;44.56
12897;BME280;6516;35.028;32.372;2024-03-02T11:50:58;99568.69;;;27.14;43.35
12897;BME280;6516;35.028;32.372;2024-03-02T11:53:27;99573.38;;;27.13;43.10
12897;BME280;6516;35.028;32.372;2024-03-02T11:55:58;99558.88;;;27.13;45.41
12897;BME280;6516;35.028;32.372;2024-03-02T11:58:27;99569.09;;;27.29;44.72
12897;BME280;6516;35.028;32.372;2024-03-02T12:00:55;99567.09;;;27.31;43.14
12897;BME280;6516;35.028;32.372;2024-03-02T12:03:24;99575.38;;;27.30;42.88
12897;BME280;6516;35.028;32.372;2024-03-02T12:05:53;99570.41;;;27.25;42.80
12897;BME280;6516;35.028;32.372;2024-03-02T12:08:21;99563.72;;;27.20;45.31
12897;BME280;6516;35.028;32.372;2024-03-02T12:11:01;99573.94;;;27.16;43.18
12897;BME280;6516;35.028;32.372;2024-03-02T12:13:29;99566.00;;;27.05;42.11
12897;BME280;6516;35.028;32.372;2024-03-02T12:15:57;99565.69;;;27.17;43.10
12897;BME280;6516;35.028;32.372;2024-03-02T12:18:25;99572.25;;;27.15;44.09
12897;BME280;6516;35.028;32.372;2024-03-02T12:20:53;99561.44;;;27.05;33.69
12897;BME280;6516;35.028;32.372;2024-03-02T12:23:23;99565.31;;;26.74;32.22
12897;BME280;6516;35.028;32.372;2024-03-02T12:25:50;99572.41;;;26.85;32.02
12897;BME280;6516;35.028;32.372;2024-03-02T12:28:20;99566.09;;;26.08;31.09
12897;BME280;6516;35.028;32.372;2024-03-02T12:30:48;99570.75;;;26.06;31.80
12897;BME280;6516;35.028;32.372;2024-03-02T12:33:17;99578.47;;;26.11;31.56
12897;BME280;6516;35.028;32.372;2024-03-02T12:35:45;99568.94;;;25.77;31.46
12897;BME280;6516;35.028;32.372;2024-03-02T12:38:15;99576.25;;;25.56;31.50
12897;BME280;6516;35.028;32.372;2024-03-02T12:40:42;99587.41;;;25.42;32.35
12897;BME280;6516;35.028;32.372;2024-03-02T12:43:10;99578.97;;;25.65;34.10
12897;BME280;6516;35.028;32.372;2024-03-02T12:45:40;99581.72;;;25.45;34.36
12897;BME280;6516;35.028;32.372;2024-03-02T12:48:07;99577.81;;;25.58;34.49
12897;BME280;6516;35.028;32.372;2024-03-02T12:50:35;99578.75;;;25.48;34.40
12897;BME280;6516;35.028;32.372;2024-03-02T12:53:03;99581.25;;;25.40;36.14
12897;BME280;6516;35.028;32.372;2024-03-02T12:55:31;99586.19;;;25.14;37.70
12897;BME280;6516;35.028;32.372;2024-03-02T12:58:00;99589.41;;;24.88;35.78
12897;BME280;6516;35.028;32.372;2024-03-02T13:00:28;99600.22;;;24.77;35.44
12897;BME280;6516;35.028;32.372;2024-03-02T13:03:02;99605.38;;;24.37;35.36
12897;BME280;6516;35.028;32.372;2024-03-02T13:05:30;99604.72;;;24.13;36.20
12897;BME280;6516;35.028;32.372;2024-03-02T13:07:59;99608.03;;;23.84;37.72
12897;BME280;6516;35.028;32.372;2024-03-02T13:10:29;99610.84;;;23.71;39.75
12897;BME280;6516;35.028;32.372;2024-03-02T13:12:57;99616.56;;;23.67;41.05